sensor_id;sensor_type;location;lat;lon;timestamp;P1;durP1;ratioP1;P2;durP2;ratioP2
54263;SDS011;40178;53.042;6.406;2023-03-29T00:00:37;6.78;;;3.28;;
54263;SDS011;40178;53.042;6.406;2023-03-29T00:03:03;7.38;;;3.15;;
54263;SDS011;40178;53.042;6.406;2023-03-29T00:05:29;8.20;;;3.08;;
54263;SDS011;40178;53.042;6.406;2023-03-29T00:07:58;6.50;;;3.05;;
54263;SDS011;40178;53.042;6.406;2023-03-29T00:10:28;9.18;;;3.00;;
54263;SDS011;40178;53.042;6.406;2023-03-29T00:12:56;8.57;;;3.95;;
54263;SDS011;40178;53.042;6.406;2023-03-29T00:15:22;5.30;;;2.75;;
54263;SDS011;40178;53.042;6.406;2023-03-29T00:17:48;7.25;;;3.30;;
54263;SDS011;40178;53.042;6.406;2023-03-29T00:20:13;5.80;;;3.03;;
54263;SDS011;40178;53.042;6.406;2023-03-29T00:22:40;6.90;;;2.90;;
54263;SDS011;40178;53.042;6.406;2023-03-29T00:25:07;7.35;;;3.00;;
54263;SDS011;40178;53.042;6.406;2023-03-29T00:27:34;6.38;;;3.05;;
54263;SDS011;40178;53.042;6.406;2023-03-29T00:30:00;10.25;;;3.65;;
54263;SDS011;40178;53.042;6.406;2023-03-29T00:32:28;5.70;;;3.03;;
54263;SDS011;40178;53.042;6.406;2023-03-29T00:34:54;6.50;;;2.85;;
54263;SDS011;40178;53.042;6.406;2023-03-29T00:37:20;5.85;;;2.58;;
54263;SDS011;40178;53.042;6.406;2023-03-29T00:39:50;5.72;;;2.70;;
54263;SDS011;40178;53.042;6.406;2023-03-29T00:42:17;6.38;;;3.03;;
54263;SDS011;40178;53.042;6.406;2023-03-29T00:47:41;7.30;;;3.20;;
54263;SDS011;40178;53.042;6.406;2023-03-29T00:50:18;7.90;;;3.08;;
54263;SDS011;40178;53.042;6.406;2023-03-29T00:52:52;7.05;;;2.90;;
54263;SDS011;40178;53.042;6.406;2023-03-29T00:55:23;7.82;;;2.75;;
54263;SDS011;40178;53.042;6.406;2023-03-29T00:57:53;5.68;;;2.95;;
54263;SDS011;40178;53.042;6.406;2023-03-29T01:00:21;5.78;;;2.90;;
54263;SDS011;40178;53.042;6.406;2023-03-29T01:02:52;5.47;;;2.80;;
54263;SDS011;40178;53.042;6.406;2023-03-29T01:05:36;5.93;;;3.13;;
54263;SDS011;40178;53.042;6.406;2023-03-29T01:08:07;6.20;;;3.00;;
54263;SDS011;40178;53.042;6.406;2023-03-29T01:13:12;6.43;;;2.97;;
54263;SDS011;40178;53.042;6.406;2023-03-29T01:15:42;8.75;;;2.85;;
54263;SDS011;40178;53.042;6.406;2023-03-29T01:18:09;6.68;;;2.80;;
54263;SDS011;40178;53.042;6.406;2023-03-29T01:23:16;7.70;;;3.35;;
54263;SDS011;40178;53.042;6.406;2023-03-29T01:28:20;8.07;;;3.40;;
54263;SDS011;40178;53.042;6.406;2023-03-29T01:31:08;5.97;;;3.05;;
54263;SDS011;40178;53.042;6.406;2023-03-29T01:33:43;7.25;;;3.50;;
54263;SDS011;40178;53.042;6.406;2023-03-29T01:36:32;8.07;;;3.55;;
54263;SDS011;40178;53.042;6.406;2023-03-29T01:39:10;6.82;;;3.47;;
54263;SDS011;40178;53.042;6.406;2023-03-29T01:41:47;6.43;;;3.75;;
54263;SDS011;40178;53.042;6.406;2023-03-29T01:44:29;7.90;;;3.80;;
54263;SDS011;40178;53.042;6.406;2023-03-29T01:47:03;9.30;;;3.72;;
54263;SDS011;40178;53.042;6.406;2023-03-29T01:49:39;9.70;;;4.20;;
54263;SDS011;40178;53.042;6.406;2023-03-29T01:52:13;6.55;;;3.63;;
54263;SDS011;40178;53.042;6.406;2023-03-29T01:54:46;8.88;;;4.18;;
54263;SDS011;40178;53.042;6.406;2023-03-29T01:57:22;7.93;;;4.10;;
54263;SDS011;40178;53.042;6.406;2023-03-29T01:59:50;9.00;;;4.00;;
54263;SDS011;40178;53.042;6.406;2023-03-29T02:02:19;10.05;;;4.20;;
54263;SDS011;40178;53.042;6.406;2023-03-29T02:04:48;8.63;;;4.43;;
54263;SDS011;40178;53.042;6.406;2023-03-29T02:07:17;9.23;;;4.35;;
54263;SDS011;40178;53.042;6.406;2023-03-29T02:09:47;9.70;;;4.63;;
54263;SDS011;40178;53.042;6.406;2023-03-29T02:12:16;8.48;;;4.90;;
54263;SDS011;40178;53.042;6.406;2023-03-29T02:14:42;7.93;;;4.07;;
54263;SDS011;40178;53.042;6.406;2023-03-29T02:17:12;8.85;;;4.10;;
54263;SDS011;40178;53.042;6.406;2023-03-29T02:19:51;7.18;;;4.05;;
54263;SDS011;40178;53.042;6.406;2023-03-29T02:22:46;9.32;;;4.60;;
54263;SDS011;40178;53.042;6.406;2023-03-29T02:25:32;8.32;;;4.32;;
54263;SDS011;40178;53.042;6.406;2023-03-29T02:27:58;10.55;;;5.07;;
54263;SDS011;40178;53.042;6.406;2023-03-29T02:30:26;7.88;;;4.22;;
54263;SDS011;40178;53.042;6.406;2023-03-29T02:33:25;8.05;;;4.75;;
54263;SDS011;40178;53.042;6.406;2023-03-29T02:36:07;7.68;;;4.68;;
54263;SDS011;40178;53.042;6.406;2023-03-29T02:38:37;9.35;;;4.60;;
54263;SDS011;40178;53.042;6.406;2023-03-29T02:41:03;8.68;;;4.82;;
54263;SDS011;40178;53.042;6.406;2023-03-29T02:43:29;8.10;;;4.70;;
54263;SDS011;40178;53.042;6.406;2023-03-29T02:45:56;8.88;;;4.68;;
54263;SDS011;40178;53.042;6.406;2023-03-29T02:48:23;8.95;;;4.63;;
54263;SDS011;40178;53.042;6.406;2023-03-29T02:50:52;9.80;;;4.78;;
54263;SDS011;40178;53.042;6.406;2023-03-29T02:53:23;8.77;;;4.38;;
54263;SDS011;40178;53.042;6.406;2023-03-29T02:55:57;9.70;;;5.03;;
54263;SDS011;40178;53.042;6.406;2023-03-29T02:58:26;8.60;;;4.80;;
54263;SDS011;40178;53.042;6.406;2023-03-29T03:00:52;9.95;;;4.75;;
54263;SDS011;40178;53.042;6.406;2023-03-29T03:03:20;7.50;;;4.47;;
54263;SDS011;40178;53.042;6.406;2023-03-29T03:05:46;8.32;;;5.25;;
54263;SDS011;40178;53.042;6.406;2023-03-29T03:08:12;9.85;;;4.72;;
54263;SDS011;40178;53.042;6.406;2023-03-29T03:10:39;8.25;;;4.53;;
54263;SDS011;40178;53.042;6.406;2023-03-29T03:13:05;8.50;;;4.93;;
54263;SDS011;40178;53.042;6.406;2023-03-29T03:15:31;10.45;;;4.78;;
54263;SDS011;40178;53.042;6.406;2023-03-29T03:17:59;9.13;;;5.10;;
54263;SDS011;40178;53.042;6.406;2023-03-29T03:20:27;8.45;;;4.70;;
54263;SDS011;40178;53.042;6.406;2023-03-29T03:22:53;9.07;;;4.53;;
54263;SDS011;40178;53.042;6.406;2023-03-29T03:25:21;8.65;;;4.43;;
54263;SDS011;40178;53.042;6.406;2023-03-29T03:27:47;8.13;;;4.95;;
54263;SDS011;40178;53.042;6.406;2023-03-29T03:30:14;9.07;;;4.80;;
54263;SDS011;40178;53.042;6.406;2023-03-29T03:32:40;9.50;;;4.63;;
54263;SDS011;40178;53.042;6.406;2023-03-29T03:35:07;10.80;;;5.18;;
54263;SDS011;40178;53.042;6.406;2023-03-29T03:37:35;10.55;;;5.20;;
54263;SDS011;40178;53.042;6.406;2023-03-29T03:40:02;7.78;;;4.80;;
54263;SDS011;40178;53.042;6.406;2023-03-29T03:42:35;9.43;;;4.97;;
54263;SDS011;40178;53.042;6.406;2023-03-29T03:45:02;9.32;;;5.28;;
54263;SDS011;40178;53.042;6.406;2023-03-29T03:47:27;8.82;;;4.93;;
54263;SDS011;40178;53.042;6.406;2023-03-29T03:49:54;8.13;;;5.07;;
54263;SDS011;40178;53.042;6.406;2023-03-29T03:52:20;9.27;;;4.80;;
54263;SDS011;40178;53.042;6.406;2023-03-29T03:54:46;9.77;;;5.10;;
54263;SDS011;40178;53.042;6.406;2023-03-29T03:57:12;10.50;;;5.00;;
54263;SDS011;40178;53.042;6.406;2023-03-29T03:59:38;9.18;;;4.95;;
54263;SDS011;40178;53.042;6.406;2023-03-29T04:02:04;8.38;;;4.78;;
54263;SDS011;40178;53.042;6.406;2023-03-29T04:04:30;12.50;;;5.72;;
54263;SDS011;40178;53.042;6.406;2023-03-29T04:06:56;8.38;;;4.90;;
54263;SDS011;40178;53.042;6.406;2023-03-29T04:09:30;9.90;;;5.90;;
54263;SDS011;40178;53.042;6.406;2023-03-29T04:11:57;14.40;;;5.85;;
54263;SDS011;40178;53.042;6.406;2023-03-29T04:14:25;8.63;;;5.13;;
54263;SDS011;40178;53.042;6.406;2023-03-29T04:16:52;9.45;;;5.63;;
54263;SDS011;40178;53.042;6.406;2023-03-29T04:19:18;10.43;;;5.75;;
54263;SDS011;40178;53.042;6.406;2023-03-29T04:21:44;13.52;;;5.95;;
54263;SDS011;40178;53.042;6.406;2023-03-29T04:24:11;9.75;;;5.22;;
54263;SDS011;40178;53.042;6.406;2023-03-29T04:26:37;9.18;;;5.38;;
54263;SDS011;40178;53.042;6.406;2023-03-29T04:29:03;10.18;;;5.75;;
54263;SDS011;40178;53.042;6.406;2023-03-29T04:31:29;10.82;;;5.95;;
54263;SDS011;40178;53.042;6.406;2023-03-29T04:33:56;9.20;;;5.32;;
54263;SDS011;40178;53.042;6.406;2023-03-29T04:36:22;8.40;;;5.15;;
54263;SDS011;40178;53.042;6.406;2023-03-29T04:38:48;9.25;;;5.28;;
54263;SDS011;40178;53.042;6.406;2023-03-29T04:41:16;9.07;;;5.20;;
54263;SDS011;40178;53.042;6.406;2023-03-29T04:43:42;9.50;;;5.20;;
54263;SDS011;40178;53.042;6.406;2023-03-29T04:46:10;8.88;;;5.00;;
54263;SDS011;40178;53.042;6.406;2023-03-29T04:48:39;8.63;;;5.28;;
54263;SDS011;40178;53.042;6.406;2023-03-29T04:51:05;10.02;;;5.55;;
54263;SDS011;40178;53.042;6.406;2023-03-29T04:53:30;10.95;;;6.05;;
54263;SDS011;40178;53.042;6.406;2023-03-29T04:55:56;8.82;;;5.75;;
54263;SDS011;40178;53.042;6.406;2023-03-29T04:58:23;8.35;;;5.20;;
54263;SDS011;40178;53.042;6.406;2023-03-29T05:00:49;10.68;;;5.50;;
54263;SDS011;40178;53.042;6.406;2023-03-29T05:03:15;10.18;;;5.55;;
54263;SDS011;40178;53.042;6.406;2023-03-29T05:05:41;11.23;;;6.07;;
54263;SDS011;40178;53.042;6.406;2023-03-29T05:08:07;10.13;;;6.35;;
54263;SDS011;40178;53.042;6.406;2023-03-29T05:10:33;10.00;;;5.95;;
54263;SDS011;40178;53.042;6.406;2023-03-29T05:13:00;12.48;;;6.40;;
54263;SDS011;40178;53.042;6.406;2023-03-29T05:15:25;11.95;;;6.18;;
54263;SDS011;40178;53.042;6.406;2023-03-29T05:17:51;11.73;;;6.70;;
54263;SDS011;40178;53.042;6.406;2023-03-29T05:20:17;13.00;;;6.82;;
54263;SDS011;40178;53.042;6.406;2023-03-29T05:22:43;10.95;;;6.00;;
54263;SDS011;40178;53.042;6.406;2023-03-29T05:25:08;12.02;;;6.40;;
54263;SDS011;40178;53.042;6.406;2023-03-29T05:27:35;16.02;;;6.90;;
54263;SDS011;40178;53.042;6.406;2023-03-29T05:30:01;11.63;;;7.00;;
54263;SDS011;40178;53.042;6.406;2023-03-29T05:32:27;11.98;;;6.43;;
54263;SDS011;40178;53.042;6.406;2023-03-29T05:34:53;11.48;;;7.63;;
54263;SDS011;40178;53.042;6.406;2023-03-29T05:37:19;13.95;;;6.88;;
54263;SDS011;40178;53.042;6.406;2023-03-29T05:39:45;13.85;;;7.03;;
54263;SDS011;40178;53.042;6.406;2023-03-29T05:42:10;11.32;;;6.95;;
54263;SDS011;40178;53.042;6.406;2023-03-29T05:44:38;13.13;;;7.15;;
54263;SDS011;40178;53.042;6.406;2023-03-29T05:47:04;12.60;;;7.50;;
54263;SDS011;40178;53.042;6.406;2023-03-29T05:49:30;14.63;;;7.53;;
54263;SDS011;40178;53.042;6.406;2023-03-29T05:51:56;13.30;;;7.82;;
54263;SDS011;40178;53.042;6.406;2023-03-29T05:54:23;15.43;;;8.73;;
54263;SDS011;40178;53.042;6.406;2023-03-29T05:56:49;12.10;;;7.55;;
54263;SDS011;40178;53.042;6.406;2023-03-29T05:59:15;15.70;;;8.40;;
54263;SDS011;40178;53.042;6.406;2023-03-29T06:01:41;14.77;;;8.30;;
54263;SDS011;40178;53.042;6.406;2023-03-29T06:04:10;14.50;;;8.10;;
54263;SDS011;40178;53.042;6.406;2023-03-29T06:06:36;13.55;;;7.97;;
54263;SDS011;40178;53.042;6.406;2023-03-29T06:09:02;12.88;;;8.18;;
54263;SDS011;40178;53.042;6.406;2023-03-29T06:11:28;16.48;;;8.43;;
54263;SDS011;40178;53.042;6.406;2023-03-29T06:13:53;15.70;;;8.57;;
54263;SDS011;40178;53.042;6.406;2023-03-29T06:16:19;17.40;;;9.73;;
54263;SDS011;40178;53.042;6.406;2023-03-29T06:18:45;15.80;;;9.90;;
54263;SDS011;40178;53.042;6.406;2023-03-29T06:21:10;14.23;;;8.70;;
54263;SDS011;40178;53.042;6.406;2023-03-29T06:23:36;16.48;;;9.55;;
54263;SDS011;40178;53.042;6.406;2023-03-29T06:26:02;17.05;;;10.02;;
54263;SDS011;40178;53.042;6.406;2023-03-29T06:28:28;13.65;;;8.75;;
54263;SDS011;40178;53.042;6.406;2023-03-29T06:30:54;16.30;;;9.38;;
54263;SDS011;40178;53.042;6.406;2023-03-29T06:33:20;15.45;;;8.65;;
54263;SDS011;40178;53.042;6.406;2023-03-29T06:35:47;15.65;;;10.00;;
54263;SDS011;40178;53.042;6.406;2023-03-29T06:38:13;16.92;;;10.23;;
54263;SDS011;40178;53.042;6.406;2023-03-29T06:40:40;17.15;;;10.05;;
54263;SDS011;40178;53.042;6.406;2023-03-29T06:43:07;17.65;;;10.60;;
54263;SDS011;40178;53.042;6.406;2023-03-29T06:45:33;17.55;;;10.15;;
54263;SDS011;40178;53.042;6.406;2023-03-29T06:48:01;17.45;;;9.73;;
54263;SDS011;40178;53.042;6.406;2023-03-29T06:50:27;15.05;;;10.00;;
54263;SDS011;40178;53.042;6.406;2023-03-29T06:52:53;15.77;;;9.85;;
54263;SDS011;40178;53.042;6.406;2023-03-29T06:55:19;15.63;;;9.95;;
54263;SDS011;40178;53.042;6.406;2023-03-29T06:57:46;18.77;;;11.07;;
54263;SDS011;40178;53.042;6.406;2023-03-29T07:00:13;14.32;;;8.68;;
54263;SDS011;40178;53.042;6.406;2023-03-29T07:02:42;17.10;;;10.07;;
54263;SDS011;40178;53.042;6.406;2023-03-29T07:05:08;16.50;;;9.85;;
54263;SDS011;40178;53.042;6.406;2023-03-29T07:07:41;14.82;;;9.20;;
54263;SDS011;40178;53.042;6.406;2023-03-29T07:10:38;14.27;;;9.43;;
54263;SDS011;40178;53.042;6.406;2023-03-29T07:13:07;14.98;;;9.02;;
54263;SDS011;40178;53.042;6.406;2023-03-29T07:15:36;15.07;;;8.88;;
54263;SDS011;40178;53.042;6.406;2023-03-29T07:18:01;14.75;;;9.52;;
54263;SDS011;40178;53.042;6.406;2023-03-29T07:20:28;13.80;;;8.85;;
54263;SDS011;40178;53.042;6.406;2023-03-29T07:22:55;16.30;;;9.43;;
54263;SDS011;40178;53.042;6.406;2023-03-29T07:25:22;16.48;;;9.57;;
54263;SDS011;40178;53.042;6.406;2023-03-29T07:27:48;15.07;;;8.93;;
54263;SDS011;40178;53.042;6.406;2023-03-29T07:30:17;12.70;;;8.63;;
54263;SDS011;40178;53.042;6.406;2023-03-29T07:32:45;14.68;;;8.80;;
54263;SDS011;40178;53.042;6.406;2023-03-29T07:35:12;14.80;;;8.65;;
54263;SDS011;40178;53.042;6.406;2023-03-29T07:37:39;13.60;;;8.43;;
54263;SDS011;40178;53.042;6.406;2023-03-29T07:40:07;13.07;;;8.18;;
54263;SDS011;40178;53.042;6.406;2023-03-29T07:42:39;15.15;;;8.80;;
54263;SDS011;40178;53.042;6.406;2023-03-29T07:45:05;14.20;;;8.88;;
54263;SDS011;40178;53.042;6.406;2023-03-29T07:47:32;12.52;;;8.60;;
54263;SDS011;40178;53.042;6.406;2023-03-29T07:49:59;13.18;;;7.93;;
54263;SDS011;40178;53.042;6.406;2023-03-29T07:52:25;13.65;;;8.60;;
54263;SDS011;40178;53.042;6.406;2023-03-29T07:54:54;13.25;;;8.15;;
54263;SDS011;40178;53.042;6.406;2023-03-29T07:57:24;14.48;;;8.52;;
54263;SDS011;40178;53.042;6.406;2023-03-29T07:59:50;13.50;;;7.55;;
54263;SDS011;40178;53.042;6.406;2023-03-29T08:02:17;14.15;;;7.97;;
54263;SDS011;40178;53.042;6.406;2023-03-29T08:04:44;13.20;;;7.72;;
54263;SDS011;40178;53.042;6.406;2023-03-29T08:07:10;12.52;;;7.75;;
54263;SDS011;40178;53.042;6.406;2023-03-29T08:09:36;12.05;;;7.63;;
54263;SDS011;40178;53.042;6.406;2023-03-29T08:12:02;12.93;;;7.40;;
54263;SDS011;40178;53.042;6.406;2023-03-29T08:14:28;15.45;;;8.38;;
54263;SDS011;40178;53.042;6.406;2023-03-29T08:16:54;12.27;;;7.80;;
54263;SDS011;40178;53.042;6.406;2023-03-29T08:19:20;13.90;;;7.90;;
54263;SDS011;40178;53.042;6.406;2023-03-29T08:21:46;13.23;;;7.68;;
54263;SDS011;40178;53.042;6.406;2023-03-29T08:24:12;13.48;;;8.05;;
54263;SDS011;40178;53.042;6.406;2023-03-29T08:26:38;13.43;;;8.02;;
54263;SDS011;40178;53.042;6.406;2023-03-29T08:29:03;13.15;;;8.35;;
54263;SDS011;40178;53.042;6.406;2023-03-29T08:31:30;14.88;;;8.57;;
54263;SDS011;40178;53.042;6.406;2023-03-29T08:33:56;14.07;;;8.35;;
54263;SDS011;40178;53.042;6.406;2023-03-29T08:36:22;11.13;;;7.50;;
54263;SDS011;40178;53.042;6.406;2023-03-29T08:38:47;12.88;;;7.57;;
54263;SDS011;40178;53.042;6.406;2023-03-29T08:48:53;13.27;;;7.93;;
54263;SDS011;40178;53.042;6.406;2023-03-29T08:51:28;11.60;;;7.75;;
54263;SDS011;40178;53.042;6.406;2023-03-29T08:54:01;12.32;;;7.57;;
54263;SDS011;40178;53.042;6.406;2023-03-29T08:56:35;14.48;;;7.78;;
54263;SDS011;40178;53.042;6.406;2023-03-29T08:59:03;15.35;;;7.93;;
54263;SDS011;40178;53.042;6.406;2023-03-29T09:01:36;11.90;;;7.80;;
54263;SDS011;40178;53.042;6.406;2023-03-29T09:04:06;13.73;;;7.63;;
54263;SDS011;40178;53.042;6.406;2023-03-29T09:06:37;12.83;;;7.43;;
54263;SDS011;40178;53.042;6.406;2023-03-29T09:09:04;12.18;;;7.50;;
54263;SDS011;40178;53.042;6.406;2023-03-29T09:11:51;13.88;;;8.40;;
54263;SDS011;40178;53.042;6.406;2023-03-29T09:14:39;12.20;;;7.85;;
54263;SDS011;40178;53.042;6.406;2023-03-29T09:20:11;14.18;;;8.05;;
54263;SDS011;40178;53.042;6.406;2023-03-29T09:31:20;14.75;;;7.97;;
54263;SDS011;40178;53.042;6.406;2023-03-29T09:33:54;14.52;;;8.23;;
54263;SDS011;40178;53.042;6.406;2023-03-29T09:38:54;14.95;;;7.85;;
54263;SDS011;40178;53.042;6.406;2023-03-29T09:41:29;15.18;;;8.30;;
54263;SDS011;40178;53.042;6.406;2023-03-29T09:44:09;16.05;;;7.93;;
54263;SDS011;40178;53.042;6.406;2023-03-29T09:46:41;10.98;;;7.88;;
54263;SDS011;40178;53.042;6.406;2023-03-29T09:49:26;13.75;;;8.82;;
54263;SDS011;40178;53.042;6.406;2023-03-29T09:51:55;15.18;;;8.18;;
54263;SDS011;40178;53.042;6.406;2023-03-29T09:54:26;17.63;;;8.68;;
54263;SDS011;40178;53.042;6.406;2023-03-29T09:56:52;13.20;;;7.95;;
54263;SDS011;40178;53.042;6.406;2023-03-29T09:59:18;13.35;;;8.52;;
54263;SDS011;40178;53.042;6.406;2023-03-29T10:01:43;16.20;;;9.02;;
54263;SDS011;40178;53.042;6.406;2023-03-29T10:04:10;14.68;;;9.00;;
54263;SDS011;40178;53.042;6.406;2023-03-29T10:06:36;16.63;;;9.45;;
54263;SDS011;40178;53.042;6.406;2023-03-29T10:09:18;15.00;;;9.07;;
54263;SDS011;40178;53.042;6.406;2023-03-29T10:11:47;15.05;;;8.68;;
54263;SDS011;40178;53.042;6.406;2023-03-29T10:15:02;14.95;;;9.05;;
54263;SDS011;40178;53.042;6.406;2023-03-29T10:17:20;14.23;;;9.30;;
54263;SDS011;40178;53.042;6.406;2023-03-29T10:19:54;15.70;;;9.32;;
54263;SDS011;40178;53.042;6.406;2023-03-29T10:22:22;14.55;;;8.32;;
54263;SDS011;40178;53.042;6.406;2023-03-29T10:24:51;14.75;;;9.50;;
54263;SDS011;40178;53.042;6.406;2023-03-29T10:27:22;16.15;;;9.88;;
54263;SDS011;40178;53.042;6.406;2023-03-29T10:29:50;16.75;;;9.52;;
54263;SDS011;40178;53.042;6.406;2023-03-29T10:32:28;16.08;;;10.07;;
54263;SDS011;40178;53.042;6.406;2023-03-29T10:35:20;18.27;;;9.85;;
54263;SDS011;40178;53.042;6.406;2023-03-29T10:37:48;19.05;;;9.98;;
54263;SDS011;40178;53.042;6.406;2023-03-29T10:40:21;17.23;;;9.82;;
54263;SDS011;40178;53.042;6.406;2023-03-29T10:45:45;21.52;;;10.95;;
54263;SDS011;40178;53.042;6.406;2023-03-29T10:48:16;18.20;;;10.38;;
54263;SDS011;40178;53.042;6.406;2023-03-29T10:50:47;20.02;;;10.93;;
54263;SDS011;40178;53.042;6.406;2023-03-29T10:53:16;18.10;;;10.40;;
54263;SDS011;40178;53.042;6.406;2023-03-29T10:55:54;18.92;;;11.48;;
54263;SDS011;40178;53.042;6.406;2023-03-29T11:05:02;17.10;;;10.70;;
54263;SDS011;40178;53.042;6.406;2023-03-29T11:07:46;17.50;;;10.18;;
54263;SDS011;40178;53.042;6.406;2023-03-29T11:10:44;17.10;;;9.85;;
54263;SDS011;40178;53.042;6.406;2023-03-29T11:13:37;15.65;;;9.77;;
54263;SDS011;40178;53.042;6.406;2023-03-29T11:26:57;14.65;;;9.13;;
54263;SDS011;40178;53.042;6.406;2023-03-29T11:32:22;13.88;;;9.40;;
54263;SDS011;40178;53.042;6.406;2023-03-29T11:37:32;13.13;;;8.87;;
54263;SDS011;40178;53.042;6.406;2023-03-29T11:46:17;14.57;;;9.02;;
54263;SDS011;40178;53.042;6.406;2023-03-29T11:48:57;14.68;;;9.95;;
54263;SDS011;40178;53.042;6.406;2023-03-29T11:51:39;14.50;;;9.73;;
54263;SDS011;40178;53.042;6.406;2023-03-29T11:54:15;14.55;;;9.60;;
54263;SDS011;40178;53.042;6.406;2023-03-29T11:56:58;14.57;;;9.48;;
54263;SDS011;40178;53.042;6.406;2023-03-29T12:02:20;12.70;;;8.55;;
54263;SDS011;40178;53.042;6.406;2023-03-29T12:05:06;13.80;;;9.18;;
54263;SDS011;40178;53.042;6.406;2023-03-29T12:07:44;14.35;;;8.60;;
54263;SDS011;40178;53.042;6.406;2023-03-29T12:10:15;12.32;;;9.60;;
54263;SDS011;40178;53.042;6.406;2023-03-29T12:15:20;14.63;;;9.52;;
54263;SDS011;40178;53.042;6.406;2023-03-29T12:17:51;14.23;;;9.35;;
54263;SDS011;40178;53.042;6.406;2023-03-29T12:20:25;13.00;;;8.68;;
54263;SDS011;40178;53.042;6.406;2023-03-29T12:22:55;12.68;;;8.27;;
54263;SDS011;40178;53.042;6.406;2023-03-29T12:25:43;13.95;;;8.43;;
54263;SDS011;40178;53.042;6.406;2023-03-29T12:39:45;14.32;;;9.35;;
54263;SDS011;40178;53.042;6.406;2023-03-29T12:42:12;14.45;;;8.77;;
54263;SDS011;40178;53.042;6.406;2023-03-29T12:44:42;11.07;;;7.72;;
54263;SDS011;40178;53.042;6.406;2023-03-29T12:47:18;13.82;;;8.73;;
54263;SDS011;40178;53.042;6.406;2023-03-29T12:49:48;12.90;;;8.35;;
54263;SDS011;40178;53.042;6.406;2023-03-29T12:52:22;13.23;;;9.13;;
54263;SDS011;40178;53.042;6.406;2023-03-29T12:54:55;13.18;;;8.27;;
54263;SDS011;40178;53.042;6.406;2023-03-29T12:57:27;13.65;;;8.05;;
54263;SDS011;40178;53.042;6.406;2023-03-29T13:00:19;11.48;;;7.97;;
54263;SDS011;40178;53.042;6.406;2023-03-29T13:03:00;11.18;;;7.03;;
54263;SDS011;40178;53.042;6.406;2023-03-29T13:05:34;12.75;;;7.60;;
54263;SDS011;40178;53.042;6.406;2023-03-29T13:08:17;10.70;;;7.35;;
54263;SDS011;40178;53.042;6.406;2023-03-29T13:10:54;13.10;;;7.70;;
54263;SDS011;40178;53.042;6.406;2023-03-29T13:13:23;13.85;;;7.82;;
54263;SDS011;40178;53.042;6.406;2023-03-29T13:15:51;12.40;;;7.53;;
54263;SDS011;40178;53.042;6.406;2023-03-29T13:18:24;12.57;;;7.50;;
54263;SDS011;40178;53.042;6.406;2023-03-29T13:27:16;12.95;;;7.45;;
54263;SDS011;40178;53.042;6.406;2023-03-29T13:35:19;12.57;;;7.65;;
54263;SDS011;40178;53.042;6.406;2023-03-29T13:38:02;11.63;;;7.30;;
54263;SDS011;40178;53.042;6.406;2023-03-29T13:40:55;11.95;;;7.20;;
54263;SDS011;40178;53.042;6.406;2023-03-29T13:46:15;13.93;;;7.57;;
54263;SDS011;40178;53.042;6.406;2023-03-29T13:49:04;13.77;;;8.00;;
54263;SDS011;40178;53.042;6.406;2023-03-29T13:51:57;13.75;;;8.27;;
54263;SDS011;40178;53.042;6.406;2023-03-29T13:54:32;15.63;;;7.93;;
54263;SDS011;40178;53.042;6.406;2023-03-29T13:59:35;14.63;;;8.70;;
54263;SDS011;40178;53.042;6.406;2023-03-29T14:02:10;13.02;;;7.97;;
54263;SDS011;40178;53.042;6.406;2023-03-29T14:04:44;13.23;;;7.80;;
54263;SDS011;40178;53.042;6.406;2023-03-29T14:07:13;14.48;;;9.00;;
54263;SDS011;40178;53.042;6.406;2023-03-29T14:09:43;16.23;;;8.30;;
54263;SDS011;40178;53.042;6.406;2023-03-29T14:12:12;11.90;;;8.18;;
54263;SDS011;40178;53.042;6.406;2023-03-29T14:14:40;11.77;;;7.20;;
54263;SDS011;40178;53.042;6.406;2023-03-29T14:17:10;11.70;;;7.35;;
54263;SDS011;40178;53.042;6.406;2023-03-29T14:22:11;13.10;;;8.00;;
54263;SDS011;40178;53.042;6.406;2023-03-29T14:24:43;14.05;;;8.35;;
54263;SDS011;40178;53.042;6.406;2023-03-29T14:27:16;11.05;;;7.13;;
54263;SDS011;40178;53.042;6.406;2023-03-29T14:29:46;12.50;;;7.05;;
54263;SDS011;40178;53.042;6.406;2023-03-29T14:32:19;11.95;;;7.30;;
54263;SDS011;40178;53.042;6.406;2023-03-29T14:34:52;11.70;;;7.65;;
54263;SDS011;40178;53.042;6.406;2023-03-29T14:37:21;13.15;;;7.47;;
54263;SDS011;40178;53.042;6.406;2023-03-29T14:39:49;11.88;;;7.68;;
54263;SDS011;40178;53.042;6.406;2023-03-29T14:42:19;12.32;;;7.90;;
54263;SDS011;40178;53.042;6.406;2023-03-29T14:45:11;12.02;;;8.02;;
54263;SDS011;40178;53.042;6.406;2023-03-29T14:47:39;13.35;;;8.43;;
54263;SDS011;40178;53.042;6.406;2023-03-29T14:50:16;12.75;;;8.20;;
54263;SDS011;40178;53.042;6.406;2023-03-29T14:52:49;12.50;;;7.68;;
54263;SDS011;40178;53.042;6.406;2023-03-29T14:55:15;11.50;;;7.10;;
54263;SDS011;40178;53.042;6.406;2023-03-29T14:57:44;12.18;;;7.93;;
54263;SDS011;40178;53.042;6.406;2023-03-29T15:02:37;11.05;;;8.00;;
54263;SDS011;40178;53.042;6.406;2023-03-29T15:05:22;13.88;;;8.98;;
54263;SDS011;40178;53.042;6.406;2023-03-29T15:08:00;11.30;;;7.82;;
54263;SDS011;40178;53.042;6.406;2023-03-29T15:10:26;10.20;;;6.45;;
54263;SDS011;40178;53.042;6.406;2023-03-29T15:12:55;9.00;;;4.75;;
54263;SDS011;40178;53.042;6.406;2023-03-29T15:15:22;8.48;;;5.13;;
54263;SDS011;40178;53.042;6.406;2023-03-29T15:17:49;9.27;;;4.80;;
54263;SDS011;40178;53.042;6.406;2023-03-29T15:20:30;10.02;;;5.53;;
54263;SDS011;40178;53.042;6.406;2023-03-29T15:22:59;11.05;;;5.40;;
54263;SDS011;40178;53.042;6.406;2023-03-29T15:25:26;10.35;;;6.07;;
54263;SDS011;40178;53.042;6.406;2023-03-29T15:28:01;10.63;;;6.00;;
54263;SDS011;40178;53.042;6.406;2023-03-29T15:30:29;8.77;;;6.10;;
54263;SDS011;40178;53.042;6.406;2023-03-29T15:33:11;9.43;;;6.25;;
54263;SDS011;40178;53.042;6.406;2023-03-29T15:35:45;10.93;;;6.85;;
54263;SDS011;40178;53.042;6.406;2023-03-29T15:38:15;11.10;;;7.45;;
54263;SDS011;40178;53.042;6.406;2023-03-29T15:40:40;12.32;;;7.32;;
54263;SDS011;40178;53.042;6.406;2023-03-29T15:43:06;11.18;;;7.65;;
54263;SDS011;40178;53.042;6.406;2023-03-29T15:45:32;13.63;;;8.30;;
54263;SDS011;40178;53.042;6.406;2023-03-29T15:47:57;12.05;;;7.65;;
54263;SDS011;40178;53.042;6.406;2023-03-29T15:50:28;11.65;;;7.53;;
54263;SDS011;40178;53.042;6.406;2023-03-29T15:52:55;10.60;;;7.28;;
54263;SDS011;40178;53.042;6.406;2023-03-29T15:55:24;12.85;;;7.50;;
54263;SDS011;40178;53.042;6.406;2023-03-29T15:57:53;11.82;;;7.15;;
54263;SDS011;40178;53.042;6.406;2023-03-29T16:00:22;11.70;;;6.38;;
54263;SDS011;40178;53.042;6.406;2023-03-29T16:02:48;10.30;;;6.38;;
54263;SDS011;40178;53.042;6.406;2023-03-29T16:05:15;11.05;;;7.00;;
54263;SDS011;40178;53.042;6.406;2023-03-29T16:07:41;10.15;;;5.85;;
54263;SDS011;40178;53.042;6.406;2023-03-29T16:10:07;12.02;;;7.05;;
54263;SDS011;40178;53.042;6.406;2023-03-29T16:12:34;12.02;;;6.75;;
54263;SDS011;40178;53.042;6.406;2023-03-29T16:15:07;11.25;;;6.80;;
54263;SDS011;40178;53.042;6.406;2023-03-29T16:17:41;13.27;;;7.32;;
54263;SDS011;40178;53.042;6.406;2023-03-29T16:20:07;11.90;;;7.88;;
54263;SDS011;40178;53.042;6.406;2023-03-29T16:22:34;12.63;;;7.68;;
54263;SDS011;40178;53.042;6.406;2023-03-29T16:25:00;10.35;;;7.15;;
54263;SDS011;40178;53.042;6.406;2023-03-29T16:27:29;11.38;;;7.75;;
54263;SDS011;40178;53.042;6.406;2023-03-29T16:29:56;12.27;;;8.10;;
54263;SDS011;40178;53.042;6.406;2023-03-29T16:32:23;11.38;;;8.43;;
54263;SDS011;40178;53.042;6.406;2023-03-29T16:34:48;13.93;;;9.50;;
54263;SDS011;40178;53.042;6.406;2023-03-29T16:37:14;12.80;;;9.60;;
54263;SDS011;40178;53.042;6.406;2023-03-29T16:39:39;16.55;;;10.77;;